sensor_id;sensor_type;location;lat;lon;timestamp;P1;P2;P0
76304;PMS7003;65111;50.536;19.204;2022-11-22T00:00:24;18.75;18.00;9.25
76304;PMS7003;65111;50.536;19.204;2022-11-22T00:02:52;14.50;13.00;9.25
76304;PMS7003;65111;50.536;19.204;2022-11-22T00:05:18;10.50;10.00;6.50
76304;PMS7003;65111;50.536;19.204;2022-11-22T00:07:45;6.00;6.00;4.00
76304;PMS7003;65111;50.536;19.204;2022-11-22T00:10:12;7.00;7.00;3.75
76304;PMS7003;65111;50.536;19.204;2022-11-22T00:12:39;6.75;6.25;3.50
76304;PMS7003;65111;50.536;19.204;2022-11-22T00:15:06;9.50;8.50;3.75
76304;PMS7003;65111;50.536;19.204;2022-11-22T00:17:34;5.00;5.00;3.25
76304;PMS7003;65111;50.536;19.204;2022-11-22T00:20:00;9.50;9.50;6.00
76304;PMS7003;65111;50.536;19.204;2022-11-22T00:22:27;9.00;9.00;6.25
76304;PMS7003;65111;50.536;19.204;2022-11-22T00:24:53;7.50;6.25;4.50
76304;PMS7003;65111;50.536;19.204;2022-11-22T00:27:19;12.00;9.25;4.50
76304;PMS7003;65111;50.536;19.204;2022-11-22T00:29:45;8.00;6.75;3.50
76304;PMS7003;65111;50.536;19.204;2022-11-22T00:32:12;10.75;9.75;6.00
76304;PMS7003;65111;50.536;19.204;2022-11-22T00:34:38;9.00;6.75;4.00
76304;PMS7003;65111;50.536;19.204;2022-11-22T00:37:05;10.00;6.75;4.50
76304;PMS7003;65111;50.536;19.204;2022-11-22T00:39:31;3.75;3.50;2.50
76304;PMS7003;65111;50.536;19.204;2022-11-22T00:41:58;4.00;4.00;3.25
76304;PMS7003;65111;50.536;19.204;2022-11-22T00:44:24;6.00;4.00;3.00
76304;PMS7003;65111;50.536;19.204;2022-11-22T00:46:50;7.00;5.00;4.00
76304;PMS7003;65111;50.536;19.204;2022-11-22T00:49:16;1.75;1.00;1.00
76304;PMS7003;65111;50.536;19.204;2022-11-22T00:51:43;6.25;4.00;3.00
76304;PMS7003;65111;50.536;19.204;2022-11-22T00:54:09;0.50;0.50;0.00
76304;PMS7003;65111;50.536;19.204;2022-11-22T00:56:35;6.25;6.25;4.00
76304;PMS7003;65111;50.536;19.204;2022-11-22T00:59:02;3.00;3.00;3.00
76304;PMS7003;65111;50.536;19.204;2022-11-22T01:01:28;5.50;4.00;3.00
76304;PMS7003;65111;50.536;19.204;2022-11-22T01:03:54;8.50;6.75;4.00
76304;PMS7003;65111;50.536;19.204;2022-11-22T01:06:21;3.00;2.50;1.00
76304;PMS7003;65111;50.536;19.204;2022-11-22T01:08:47;5.00;3.50;2.50
76304;PMS7003;65111;50.536;19.204;2022-11-22T01:11:14;3.75;3.25;2.50
76304;PMS7003;65111;50.536;19.204;2022-11-22T01:13:42;4.00;4.00;3.00
76304;PMS7003;65111;50.536;19.204;2022-11-22T01:16:09;4.00;4.00;3.00
76304;PMS7003;65111;50.536;19.204;2022-11-22T01:18:36;3.00;3.00;1.00
76304;PMS7003;65111;50.536;19.204;2022-11-22T01:21:03;3.00;3.00;3.00
76304;PMS7003;65111;50.536;19.204;2022-11-22T01:23:30;11.00;11.00;7.00
76304;PMS7003;65111;50.536;19.204;2022-11-22T01:25:58;10.50;10.50;6.25
76304;PMS7003;65111;50.536;19.204;2022-11-22T01:28:24;12.25;10.25;6.00
76304;PMS7003;65111;50.536;19.204;2022-11-22T01:30:51;11.50;10.25;6.00
76304;PMS7003;65111;50.536;19.204;2022-11-22T01:33:18;21.75;20.50;12.75
76304;PMS7003;65111;50.536;19.204;2022-11-22T01:35:45;21.00;20.50;10.25
76304;PMS7003;65111;50.536;19.204;2022-11-22T01:38:12;19.25;15.50;10.75
76304;PMS7003;65111;50.536;19.204;2022-11-22T01:40:38;19.00;18.25;10.00
76304;PMS7003;65111;50.536;19.204;2022-11-22T01:43:05;15.00;12.25;8.00
76304;PMS7003;65111;50.536;19.204;2022-11-22T01:45:38;26.50;23.50;12.00
76304;PMS7003;65111;50.536;19.204;2022-11-22T01:48:14;22.00;18.50;12.25
76304;PMS7003;65111;50.536;19.204;2022-11-22T01:50:40;35.00;31.00;18.25
76304;PMS7003;65111;50.536;19.204;2022-11-22T01:53:09;26.50;20.00;12.75
76304;PMS7003;65111;50.536;19.204;2022-11-22T01:55:41;21.75;16.00;10.50
76304;PMS7003;65111;50.536;19.204;2022-11-22T01:58:08;29.00;21.75;12.00
76304;PMS7003;65111;50.536;19.204;2022-11-22T02:00:37;34.25;28.75;15.75
76304;PMS7003;65111;50.536;19.204;2022-11-22T02:03:03;21.50;19.00;12.00
76304;PMS7003;65111;50.536;19.204;2022-11-22T02:05:33;30.00;25.75;17.50
76304;PMS7003;65111;50.536;19.204;2022-11-22T02:10:48;21.75;19.25;13.50
76304;PMS7003;65111;50.536;19.204;2022-11-22T02:13:18;32.50;25.00;13.00
76304;PMS7003;65111;50.536;19.204;2022-11-22T02:15:46;21.50;21.25;14.00
76304;PMS7003;65111;50.536;19.204;2022-11-22T02:18:13;25.25;21.75;12.75
76304;PMS7003;65111;50.536;19.204;2022-11-22T02:20:39;27.75;22.50;16.00
76304;PMS7003;65111;50.536;19.204;2022-11-22T02:23:09;27.00;24.00;12.00
76304;PMS7003;65111;50.536;19.204;2022-11-22T02:25:52;21.50;18.25;12.00
76304;PMS7003;65111;50.536;19.204;2022-11-22T02:28:19;15.00;12.75;7.00
76304;PMS7003;65111;50.536;19.204;2022-11-22T02:30:46;21.25;19.25;12.00
76304;PMS7003;65111;50.536;19.204;2022-11-22T02:33:12;22.25;16.25;12.50
76304;PMS7003;65111;50.536;19.204;2022-11-22T02:35:39;19.00;17.25;10.50
76304;PMS7003;65111;50.536;19.204;2022-11-22T02:43:27;20.00;20.00;9.75
76304;PMS7003;65111;50.536;19.204;2022-11-22T02:46:02;23.75;20.50;10.00
76304;PMS7003;65111;50.536;19.204;2022-11-22T02:48:32;12.00;11.00;8.50
76304;PMS7003;65111;50.536;19.204;2022-11-22T02:50:59;15.25;15.25;9.50
76304;PMS7003;65111;50.536;19.204;2022-11-22T02:53:26;26.25;20.75;12.25
76304;PMS7003;65111;50.536;19.204;2022-11-22T02:55:56;27.50;24.25;15.50
76304;PMS7003;65111;50.536;19.204;2022-11-22T02:58:22;29.75;24.00;15.50
76304;PMS7003;65111;50.536;19.204;2022-11-22T03:00:48;34.00;28.00;16.00
76304;PMS7003;65111;50.536;19.204;2022-11-22T03:03:15;36.00;31.67;16.67
76304;PMS7003;65111;50.536;19.204;2022-11-22T03:05:43;38.25;33.00;20.75
76304;PMS7003;65111;50.536;19.204;2022-11-22T03:08:29;42.33;37.67;19.00
76304;PMS7003;65111;50.536;19.204;2022-11-22T03:10:56;39.50;37.75;21.25
76304;PMS7003;65111;50.536;19.204;2022-11-22T03:13:23;31.50;30.00;18.75
76304;PMS7003;65111;50.536;19.204;2022-11-22T03:15:50;42.25;32.00;16.75
76304;PMS7003;65111;50.536;19.204;2022-11-22T03:18:16;25.25;21.25;14.00
76304;PMS7003;65111;50.536;19.204;2022-11-22T03:20:43;29.25;25.00;15.25
76304;PMS7003;65111;50.536;19.204;2022-11-22T03:23:09;25.00;25.00;16.67
76304;PMS7003;65111;50.536;19.204;2022-11-22T03:25:40;26.75;21.75;12.75
76304;PMS7003;65111;50.536;19.204;2022-11-22T03:28:04;39.50;31.50;18.75
76304;PMS7003;65111;50.536;19.204;2022-11-22T03:30:31;25.75;21.75;15.00
76304;PMS7003;65111;50.536;19.204;2022-11-22T03:32:57;37.75;33.00;18.25
76304;PMS7003;65111;50.536;19.204;2022-11-22T03:35:23;28.00;25.50;16.75
76304;PMS7003;65111;50.536;19.204;2022-11-22T03:37:49;30.50;28.25;15.75
76304;PMS7003;65111;50.536;19.204;2022-11-22T03:40:15;30.75;21.50;12.00
76304;PMS7003;65111;50.536;19.204;2022-11-22T03:42:42;29.25;22.25;14.50
76304;PMS7003;65111;50.536;19.204;2022-11-22T03:45:09;21.25;19.50;12.50
76304;PMS7003;65111;50.536;19.204;2022-11-22T03:47:35;22.75;21.50;13.00
76304;PMS7003;65111;50.536;19.204;2022-11-22T03:50:02;23.25;22.25;15.50
76304;PMS7003;65111;50.536;19.204;2022-11-22T03:52:29;23.25;19.50;13.00
76304;PMS7003;65111;50.536;19.204;2022-11-22T03:54:55;23.50;19.50;12.50
76304;PMS7003;65111;50.536;19.204;2022-11-22T03:57:21;18.75;15.50;12.50
76304;PMS7003;65111;50.536;19.204;2022-11-22T03:59:48;20.25;16.00;10.00
76304;PMS7003;65111;50.536;19.204;2022-11-22T04:02:14;17.00;14.00;6.25
76304;PMS7003;65111;50.536;19.204;2022-11-22T04:04:41;19.00;15.00;11.50
76304;PMS7003;65111;50.536;19.204;2022-11-22T04:07:07;23.00;17.00;10.00
76304;PMS7003;65111;50.536;19.204;2022-11-22T04:09:34;15.00;15.00;11.50
76304;PMS7003;65111;50.536;19.204;2022-11-22T04:12:00;16.00;13.00;9.75
76304;PMS7003;65111;50.536;19.204;2022-11-22T04:14:27;20.00;16.50;6.00
76304;PMS7003;65111;50.536;19.204;2022-11-22T04:17:12;13.00;10.50;8.50
76304;PMS7003;65111;50.536;19.204;2022-11-22T04:19:41;13.00;12.75;6.75
76304;PMS7003;65111;50.536;19.204;2022-11-22T04:22:09;18.50;17.00;10.00
76304;PMS7003;65111;50.536;19.204;2022-11-22T04:24:35;14.25;10.50;7.50
76304;PMS7003;65111;50.536;19.204;2022-11-22T04:27:09;12.75;12.75;8.50
76304;PMS7003;65111;50.536;19.204;2022-11-22T04:29:35;17.00;13.00;9.00
76304;PMS7003;65111;50.536;19.204;2022-11-22T04:32:01;18.75;12.75;8.50
76304;PMS7003;65111;50.536;19.204;2022-11-22T04:34:46;10.50;10.00;7.50
76304;PMS7003;65111;50.536;19.204;2022-11-22T04:37:12;10.50;10.50;7.00
76304;PMS7003;65111;50.536;19.204;2022-11-22T04:39:38;12.00;10.75;7.50
76304;PMS7003;65111;50.536;19.204;2022-11-22T04:42:05;17.00;13.00;8.50
76304;PMS7003;65111;50.536;19.204;2022-11-22T04:44:49;16.75;14.00;6.50
76304;PMS7003;65111;50.536;19.204;2022-11-22T04:47:16;18.00;14.50;10.00
76304;PMS7003;65111;50.536;19.204;2022-11-22T04:50:02;12.50;12.50;9.25
76304;PMS7003;65111;50.536;19.204;2022-11-22T04:52:32;13.75;10.00;7.00
76304;PMS7003;65111;50.536;19.204;2022-11-22T04:55:17;15.50;15.50;10.00
76304;PMS7003;65111;50.536;19.204;2022-11-22T04:57:43;19.75;13.50;9.50
76304;PMS7003;65111;50.536;19.204;2022-11-22T05:00:10;15.00;15.00;10.50
76304;PMS7003;65111;50.536;19.204;2022-11-22T05:02:37;12.75;12.75;7.50
76304;PMS7003;65111;50.536;19.204;2022-11-22T05:05:03;15.25;11.00;9.00
76304;PMS7003;65111;50.536;19.204;2022-11-22T05:07:32;21.00;13.50;8.50
76304;PMS7003;65111;50.536;19.204;2022-11-22T05:09:58;17.50;15.00;9.50
76304;PMS7003;65111;50.536;19.204;2022-11-22T05:12:24;16.50;14.50;8.50
76304;PMS7003;65111;50.536;19.204;2022-11-22T05:14:50;13.00;11.00;7.50
76304;PMS7003;65111;50.536;19.204;2022-11-22T05:17:17;13.00;11.50;8.50
76304;PMS7003;65111;50.536;19.204;2022-11-22T05:19:43;14.25;10.00;8.00
76304;PMS7003;65111;50.536;19.204;2022-11-22T05:22:09;20.50;13.25;9.00
76304;PMS7003;65111;50.536;19.204;2022-11-22T05:24:35;16.00;16.00;9.50
76304;PMS7003;65111;50.536;19.204;2022-11-22T05:27:02;17.25;15.75;9.75
76304;PMS7003;65111;50.536;19.204;2022-11-22T05:29:29;15.75;15.25;9.00
76304;PMS7003;65111;50.536;19.204;2022-11-22T05:31:55;15.00;12.75;9.75
76304;PMS7003;65111;50.536;19.204;2022-11-22T05:34:21;11.50;11.50;7.00
76304;PMS7003;65111;50.536;19.204;2022-11-22T05:36:48;16.00;12.00;6.50
76304;PMS7003;65111;50.536;19.204;2022-11-22T05:39:14;13.50;11.75;7.00
76304;PMS7003;65111;50.536;19.204;2022-11-22T05:41:40;15.00;14.00;9.75
76304;PMS7003;65111;50.536;19.204;2022-11-22T05:44:08;12.50;12.00;6.75
76304;PMS7003;65111;50.536;19.204;2022-11-22T05:46:34;14.25;10.00;7.00
76304;PMS7003;65111;50.536;19.204;2022-11-22T05:49:01;12.25;12.25;9.00
76304;PMS7003;65111;50.536;19.204;2022-11-22T05:51:27;8.50;6.00;4.00
76304;PMS7003;65111;50.536;19.204;2022-11-22T05:53:57;10.00;8.00;3.75
76304;PMS7003;65111;50.536;19.204;2022-11-22T05:56:23;13.00;11.50;9.00
76304;PMS7003;65111;50.536;19.204;2022-11-22T05:58:49;12.75;11.50;6.75
76304;PMS7003;65111;50.536;19.204;2022-11-22T06:01:17;14.25;12.25;7.50
76304;PMS7003;65111;50.536;19.204;2022-11-22T06:03:45;16.50;12.25;8.00
76304;PMS7003;65111;50.536;19.204;2022-11-22T06:06:12;12.00;12.00;8.00
76304;PMS7003;65111;50.536;19.204;2022-11-22T06:08:39;13.00;10.50;6.75
76304;PMS7003;65111;50.536;19.204;2022-11-22T06:11:30;14.00;11.75;8.50
76304;PMS7003;65111;50.536;19.204;2022-11-22T06:13:42;11.50;9.25;4.00
76304;PMS7003;65111;50.536;19.204;2022-11-22T06:16:10;12.50;12.00;9.00
76304;PMS7003;65111;50.536;19.204;2022-11-22T06:18:37;12.00;10.50;6.25
76304;PMS7003;65111;50.536;19.204;2022-11-22T06:21:05;22.25;19.50;12.00
76304;PMS7003;65111;50.536;19.204;2022-11-22T06:23:33;16.75;12.25;7.00
76304;PMS7003;65111;50.536;19.204;2022-11-22T06:26:00;16.00;15.75;10.00
76304;PMS7003;65111;50.536;19.204;2022-11-22T06:28:29;14.50;12.50;7.50
76304;PMS7003;65111;50.536;19.204;2022-11-22T06:31:15;16.50;13.00;6.75
76304;PMS7003;65111;50.536;19.204;2022-11-22T06:33:45;19.75;13.00;8.00
76304;PMS7003;65111;50.536;19.204;2022-11-22T06:36:16;13.50;13.00;8.00
76304;PMS7003;65111;50.536;19.204;2022-11-22T06:38:44;14.75;11.00;7.50
76304;PMS7003;65111;50.536;19.204;2022-11-22T06:41:12;16.50;15.00;9.00
76304;PMS7003;65111;50.536;19.204;2022-11-22T06:43:53;21.00;12.50;9.00
76304;PMS7003;65111;50.536;19.204;2022-11-22T06:46:22;19.00;14.00;9.00
76304;PMS7003;65111;50.536;19.204;2022-11-22T06:48:50;21.25;19.00;12.75
76304;PMS7003;65111;50.536;19.204;2022-11-22T06:51:17;24.25;21.00;12.00
76304;PMS7003;65111;50.536;19.204;2022-11-22T06:53:46;27.50;21.00;13.00
76304;PMS7003;65111;50.536;19.204;2022-11-22T06:56:17;19.50;18.00;10.00
76304;PMS7003;65111;50.536;19.204;2022-11-22T06:58:48;22.25;22.25;13.50
76304;PMS7003;65111;50.536;19.204;2022-11-22T07:01:17;19.50;17.00;9.50
76304;PMS7003;65111;50.536;19.204;2022-11-22T07:03:45;19.25;18.00;11.00
76304;PMS7003;65111;50.536;19.204;2022-11-22T07:06:12;20.75;18.25;12.00
76304;PMS7003;65111;50.536;19.204;2022-11-22T07:08:40;21.00;18.25;12.25
76304;PMS7003;65111;50.536;19.204;2022-11-22T07:11:08;18.50;18.50;13.50
76304;PMS7003;65111;50.536;19.204;2022-11-22T07:13:42;17.00;15.25;9.50
76304;PMS7003;65111;50.536;19.204;2022-11-22T07:16:09;18.25;15.25;10.50
76304;PMS7003;65111;50.536;19.204;2022-11-22T07:18:38;16.25;15.50;9.50
76304;PMS7003;65111;50.536;19.204;2022-11-22T07:21:08;21.00;18.00;13.50
76304;PMS7003;65111;50.536;19.204;2022-11-22T07:23:37;19.50;18.75;14.00
76304;PMS7003;65111;50.536;19.204;2022-11-22T07:26:05;21.00;19.00;12.25
76304;PMS7003;65111;50.536;19.204;2022-11-22T07:28:31;22.75;22.75;12.00
76304;PMS7003;65111;50.536;19.204;2022-11-22T07:30:58;30.00;27.00;14.33
76304;PMS7003;65111;50.536;19.204;2022-11-22T07:33:25;31.75;26.50;18.50
76304;PMS7003;65111;50.536;19.204;2022-11-22T07:35:52;30.00;25.00;14.50
76304;PMS7003;65111;50.536;19.204;2022-11-22T07:38:18;24.75;21.75;15.00
76304;PMS7003;65111;50.536;19.204;2022-11-22T07:40:45;24.25;21.50;13.50
76304;PMS7003;65111;50.536;19.204;2022-11-22T07:43:11;20.50;19.75;12.50
76304;PMS7003;65111;50.536;19.204;2022-11-22T07:45:38;21.50;18.75;14.75
76304;PMS7003;65111;50.536;19.204;2022-11-22T07:48:04;21.75;16.25;8.50
76304;PMS7003;65111;50.536;19.204;2022-11-22T07:50:31;46.67;39.33;21.67
76304;PMS7003;65111;50.536;19.204;2022-11-22T07:52:58;36.00;34.75;24.75
76304;PMS7003;65111;50.536;19.204;2022-11-22T07:55:25;34.75;30.75;22.00
76304;PMS7003;65111;50.536;19.204;2022-11-22T07:57:52;40.00;35.50;23.00
76304;PMS7003;65111;50.536;19.204;2022-11-22T08:00:19;28.25;26.50;18.00
76304;PMS7003;65111;50.536;19.204;2022-11-22T08:02:46;37.25;33.00;22.00
76304;PMS7003;65111;50.536;19.204;2022-11-22T08:05:12;35.25;29.50;19.00
76304;PMS7003;65111;50.536;19.204;2022-11-22T08:07:38;28.75;22.50;17.25
76304;PMS7003;65111;50.536;19.204;2022-11-22T08:10:07;32.25;28.25;18.25
76304;PMS7003;65111;50.536;19.204;2022-11-22T08:12:34;44.00;41.50;27.25
76304;PMS7003;65111;50.536;19.204;2022-11-22T08:15:00;34.50;32.25;21.00
76304;PMS7003;65111;50.536;19.204;2022-11-22T08:17:27;48.75;40.75;26.00
76304;PMS7003;65111;50.536;19.204;2022-11-22T08:19:53;39.50;36.75;21.75
76304;PMS7003;65111;50.536;19.204;2022-11-22T08:22:19;31.25;30.50;18.75
76304;PMS7003;65111;50.536;19.204;2022-11-22T08:24:46;37.25;33.50;19.75
76304;PMS7003;65111;50.536;19.204;2022-11-22T08:27:12;26.00;25.75;16.50
76304;PMS7003;65111;50.536;19.204;2022-11-22T08:29:38;52.75;42.50;24.25
76304;PMS7003;65111;50.536;19.204;2022-11-22T08:32:05;43.25;38.75;24.00
76304;PMS7003;65111;50.536;19.204;2022-11-22T08:34:31;27.25;21.50;12.50
76304;PMS7003;65111;50.536;19.204;2022-11-22T08:36:57;26.00;22.00;16.00
76304;PMS7003;65111;50.536;19.204;2022-11-22T08:39:24;29.50;28.00;16.75
76304;PMS7003;65111;50.536;19.204;2022-11-22T08:41:50;27.75;25.75;16.50
76304;PMS7003;65111;50.536;19.204;2022-11-22T08:44:16;31.75;26.75;17.50
76304;PMS7003;65111;50.536;19.204;2022-11-22T08:46:43;24.25;22.25;11.00
76304;PMS7003;65111;50.536;19.204;2022-11-22T08:49:09;37.75;33.75;19.75
76304;PMS7003;65111;50.536;19.204;2022-11-22T08:51:36;28.40;26.40;15.80
76304;PMS7003;65111;50.536;19.204;2022-11-22T08:54:05;31.60;28.60;17.40
76304;PMS7003;65111;50.536;19.204;2022-11-22T08:56:31;33.80;30.20;18.00
76304;PMS7003;65111;50.536;19.204;2022-11-22T08:58:58;26.80;25.80;16.20
76304;PMS7003;65111;50.536;19.204;2022-11-22T09:01:24;24.80;21.40;14.60
76304;PMS7003;65111;50.536;19.204;2022-11-22T09:03:50;24.40;20.40;12.60
76304;PMS7003;65111;50.536;19.204;2022-11-22T09:06:17;23.60;22.80;14.80
76304;PMS7003;65111;50.536;19.204;2022-11-22T09:08:44;23.40;21.20;14.00
76304;PMS7003;65111;50.536;19.204;2022-11-22T09:11:12;21.80;19.40;13.40
76304;PMS7003;65111;50.536;19.204;2022-11-22T09:13:40;20.60;17.00;10.80
76304;PMS7003;65111;50.536;19.204;2022-11-22T09:18:37;18.60;16.60;11.20
76304;PMS7003;65111;50.536;19.204;2022-11-22T09:21:04;21.00;19.80;13.40
76304;PMS7003;65111;50.536;19.204;2022-11-22T09:23:33;15.60;12.80;9.00
76304;PMS7003;65111;50.536;19.204;2022-11-22T09:26:00;16.20;15.00;11.20
76304;PMS7003;65111;50.536;19.204;2022-11-22T09:28:32;18.20;16.40;11.80
76304;PMS7003;65111;50.536;19.204;2022-11-22T09:31:03;18.60;17.00;10.00
76304;PMS7003;65111;50.536;19.204;2022-11-22T09:33:31;17.60;15.80;10.40
76304;PMS7003;65111;50.536;19.204;2022-11-22T09:35:59;15.80;14.80;10.60
76304;PMS7003;65111;50.536;19.204;2022-11-22T09:38:27;19.00;16.80;12.60
76304;PMS7003;65111;50.536;19.204;2022-11-22T09:40:54;16.60;15.00;9.80
76304;PMS7003;65111;50.536;19.204;2022-11-22T09:48:40;13.80;10.20;8.00
76304;PMS7003;65111;50.536;19.204;2022-11-22T09:56:23;13.00;12.20;9.20
76304;PMS7003;65111;50.536;19.204;2022-11-22T09:58:53;10.00;10.00;7.00
76304;PMS7003;65111;50.536;19.204;2022-11-22T10:01:33;10.40;10.20;6.60
76304;PMS7003;65111;50.536;19.204;2022-11-22T10:04:12;13.80;11.60;8.00
76304;PMS7003;65111;50.536;19.204;2022-11-22T10:06:43;11.80;11.20;8.60
76304;PMS7003;65111;50.536;19.204;2022-11-22T10:09:26;9.00;9.00;7.00
76304;PMS7003;65111;50.536;19.204;2022-11-22T10:12:01;5.60;5.00;4.40
76304;PMS7003;65111;50.536;19.204;2022-11-22T10:22:39;7.60;6.80;4.80
76304;PMS7003;65111;50.536;19.204;2022-11-22T10:28:00;7.00;7.00;5.40
76304;PMS7003;65111;50.536;19.204;2022-11-22T10:30:31;11.40;8.80;6.20
76304;PMS7003;65111;50.536;19.204;2022-11-22T10:33:03;10.20;7.00;5.40
76304;PMS7003;65111;50.536;19.204;2022-11-22T10:35:32;8.60;7.80;5.80
76304;PMS7003;65111;50.536;19.204;2022-11-22T10:38:10;8.00;6.80;4.40
76304;PMS7003;65111;50.536;19.204;2022-11-22T10:40:57;5.60;5.60;4.40
76304;PMS7003;65111;50.536;19.204;2022-11-22T10:52:20;6.40;6.40;4.20
76304;PMS7003;65111;50.536;19.204;2022-11-22T10:54:56;4.00;3.80;3.00
76304;PMS7003;65111;50.536;19.204;2022-11-22T11:00:18;6.00;6.00;4.20
76304;PMS7003;65111;50.536;19.204;2022-11-22T11:08:12;6.00;5.40;4.20
76304;PMS7003;65111;50.536;19.204;2022-11-22T11:10:40;5.20;5.00;3.00
76304;PMS7003;65111;50.536;19.204;2022-11-22T11:13:16;3.00;3.00;2.00
76304;PMS7003;65111;50.536;19.204;2022-11-22T11:15:45;3.60;3.60;2.40
76304;PMS7003;65111;50.536;19.204;2022-11-22T11:18:16;4.80;4.20;3.00
76304;PMS7003;65111;50.536;19.204;2022-11-22T11:20:44;9.20;6.60;5.00
76304;PMS7003;65111;50.536;19.204;2022-11-22T11:23:12;3.20;3.20;2.40
76304;PMS7003;65111;50.536;19.204;2022-11-22T11:25:40;1.60;1.00;1.00
76304;PMS7003;65111;50.536;19.204;2022-11-22T11:28:16;4.80;4.80;3.80
76304;PMS7003;65111;50.536;19.204;2022-11-22T11:30:47;7.60;7.00;5.00
76304;PMS7003;65111;50.536;19.204;2022-11-22T11:33:17;5.80;5.60;4.20
76304;PMS7003;65111;50.536;19.204;2022-11-22T11:35:46;4.60;4.00;3.40
76304;PMS7003;65111;50.536;19.204;2022-11-22T11:38:25;3.40;2.40;2.20
76304;PMS7003;65111;50.536;19.204;2022-11-22T11:40:53;4.40;3.20;3.00
76304;PMS7003;65111;50.536;19.204;2022-11-22T11:43:23;3.00;2.40;2.00
76304;PMS7003;65111;50.536;19.204;2022-11-22T11:45:49;3.40;3.40;2.80
76304;PMS7003;65111;50.536;19.204;2022-11-22T11:48:35;3.00;3.00;2.00
76304;PMS7003;65111;50.536;19.204;2022-11-22T11:53:38;4.20;4.00;3.20
76304;PMS7003;65111;50.536;19.204;2022-11-22T11:58:57;4.60;3.00;2.80
76304;PMS7003;65111;50.536;19.204;2022-11-22T12:01:25;3.00;3.00;2.00
76304;PMS7003;65111;50.536;19.204;2022-11-22T12:03:56;2.00;2.00;2.00
76304;PMS7003;65111;50.536;19.204;2022-11-22T12:06:25;4.00;4.00;2.60
76304;PMS7003;65111;50.536;19.204;2022-11-22T12:08:54;6.80;6.80;4.80
76304;PMS7003;65111;50.536;19.204;2022-11-22T12:11:28;9.40;9.40;7.00
76304;PMS7003;65111;50.536;19.204;2022-11-22T12:13:58;12.40;12.00;8.60
76304;PMS7003;65111;50.536;19.204;2022-11-22T12:16:47;15.80;13.40;8.60
76304;PMS7003;65111;50.536;19.204;2022-11-22T12:24:58;16.20;13.00;9.40
76304;PMS7003;65111;50.536;19.204;2022-11-22T12:30:13;12.00;7.40;4.20
76304;PMS7003;65111;50.536;19.204;2022-11-22T12:32:41;13.25;8.25;6.00
76304;PMS7003;65111;50.536;19.204;2022-11-22T12:35:11;15.75;13.75;9.25
76304;PMS7003;65111;50.536;19.204;2022-11-22T12:37:47;15.00;13.00;9.50
76304;PMS7003;65111;50.536;19.204;2022-11-22T12:40:23;18.50;13.00;8.00
76304;PMS7003;65111;50.536;19.204;2022-11-22T12:43:05;17.00;16.00;11.25
76304;PMS7003;65111;50.536;19.204;2022-11-22T12:45:48;16.00;16.00;11.75
76304;PMS7003;65111;50.536;19.204;2022-11-22T12:51:06;22.00;17.75;10.00
76304;PMS7003;65111;50.536;19.204;2022-11-22T12:53:55;21.00;19.75;12.00
76304;PMS7003;65111;50.536;19.204;2022-11-22T12:56:35;14.00;13.25;11.25
76304;PMS7003;65111;50.536;19.204;2022-11-22T12:59:06;14.00;14.00;9.00
76304;PMS7003;65111;50.536;19.204;2022-11-22T13:04:41;14.50;14.50;9.00
76304;PMS7003;65111;50.536;19.204;2022-11-22T13:07:13;8.00;5.00;4.00
76304;PMS7003;65111;50.536;19.204;2022-11-22T13:09:41;15.75;12.25;10.00
76304;PMS7003;65111;50.536;19.204;2022-11-22T13:12:12;25.00;19.25;12.00
76304;PMS7003;65111;50.536;19.204;2022-11-22T13:14:42;20.25;19.75;14.25
76304;PMS7003;65111;50.536;19.204;2022-11-22T13:17:12;24.50;22.50;13.75
76304;PMS7003;65111;50.536;19.204;2022-11-22T13:19:44;35.50;26.50;14.50
76304;PMS7003;65111;50.536;19.204;2022-11-22T13:22:14;27.75;23.75;16.25
76304;PMS7003;65111;50.536;19.204;2022-11-22T13:28:01;16.75;13.25;0.00
76304;PMS7003;65111;50.536;19.204;2022-11-22T13:30:30;40.25;36.50;23.00
76304;PMS7003;65111;50.536;19.204;2022-11-22T13:33:00;47.50;39.75;28.25
76304;PMS7003;65111;50.536;19.204;2022-11-22T13:35:28;47.50;43.25;27.25
76304;PMS7003;65111;50.536;19.204;2022-11-22T13:37:57;40.75;36.50;23.00
76304;PMS7003;65111;50.536;19.204;2022-11-22T13:40:44;44.25;38.00;22.50
76304;PMS7003;65111;50.536;19.204;2022-11-22T13:45:48;39.00;36.50;24.75
76304;PMS7003;65111;50.536;19.204;2022-11-22T13:51:12;36.25;33.25;21.00
76304;PMS7003;65111;50.536;19.204;2022-11-22T13:53:43;51.50;45.75;22.75
76304;PMS7003;65111;50.536;19.204;2022-11-22T14:06:52;37.00;29.00;18.50
76304;PMS7003;65111;50.536;19.204;2022-11-22T14:32:19;25.50;24.50;15.50
76304;PMS7003;65111;50.536;19.204;2022-11-22T14:37:42;29.50;22.50;15.75
76304;PMS7003;65111;50.536;19.204;2022-11-22T14:40:27;31.75;24.25;15.75
76304;PMS7003;65111;50.536;19.204;2022-11-22T14:42:44;30.00;27.50;19.50
76304;PMS7003;65111;50.536;19.204;2022-11-22T14:45:23;28.75;23.00;15.25
76304;PMS7003;65111;50.536;19.204;2022-11-22T14:48:19;28.75;23.75;12.50
76304;PMS7003;65111;50.536;19.204;2022-11-22T14:50:49;28.50;25.25;16.00
76304;PMS7003;65111;50.536;19.204;2022-11-22T14:56:14;28.75;25.75;15.75
76304;PMS7003;65111;50.536;19.204;2022-11-22T14:58:56;24.25;22.00;15.00
76304;PMS7003;65111;50.536;19.204;2022-11-22T15:07:00;27.00;24.00;15.75
76304;PMS7003;65111;50.536;19.204;2022-11-22T15:15:14;33.75;26.75;19.00
76304;PMS7003;65111;50.536;19.204;2022-11-22T15:17:43;34.50;28.25;16.50
76304;PMS7003;65111;50.536;19.204;2022-11-22T15:23:03;38.00;30.00;18.50
76304;PMS7003;65111;50.536;19.204;2022-11-22T15:25:36;30.75;26.50;16.50
76304;PMS7003;65111;50.536;19.204;2022-11-22T15:28:03;33.25;26.50;17.75
76304;PMS7003;65111;50.536;19.204;2022-11-22T15:30:29;27.50;24.25;12.50
76304;PMS7003;65111;50.536;19.204;2022-11-22T15:32:56;19.50;17.00;7.50
76304;PMS7003;65111;50.536;19.204;2022-11-22T15:35:30;23.75;22.50;13.50
76304;PMS7003;65111;50.536;19.204;2022-11-22T15:40:30;29.75;22.25;15.00
76304;PMS7003;65111;50.536;19.204;2022-11-22T15:43:01;29.50;29.00;17.00
76304;PMS7003;65111;50.536;19.204;2022-11-22T15:45:29;33.00;25.00;19.00
76304;PMS7003;65111;50.536;19.204;2022-11-22T15:50:30;31.50;27.25;17.00
76304;PMS7003;65111;50.536;19.204;2022-11-22T15:53:06;26.00;22.00;13.00
76304;PMS7003;65111;50.536;19.204;2022-11-22T15:55:32;32.50;29.00;17.00
76304;PMS7003;65111;50.536;19.204;2022-11-22T15:57:59;25.00;25.00;15.25
76304;PMS7003;65111;50.536;19.204;2022-11-22T16:00:26;29.00;25.75;17.25
76304;PMS7003;65111;50.536;19.204;2022-11-22T16:02:54;21.75;21.75;15.00
76304;PMS7003;65111;50.536;19.204;2022-11-22T16:05:28;30.50;28.50;16.00
76304;PMS7003;65111;50.536;19.204;2022-11-22T16:07:59;38.50;30.00;18.50
76304;PMS7003;65111;50.536;19.204;2022-11-22T16:13:11;31.00;27.50;19.00